sensor_id;sensor_type;location;lat;lon;timestamp;temperature;humidity
16253;DHT22;8234;41.480;2.306;2023-03-15T00:06:11;11.30;99.90
16253;DHT22;8234;41.480;2.306;2023-03-15T00:16:15;11.20;99.90
16253;DHT22;8234;41.480;2.306;2023-03-15T00:26:21;11.10;99.90
16253;DHT22;8234;41.480;2.306;2023-03-15T00:36:25;11.00;99.90
16253;DHT22;8234;41.480;2.306;2023-03-15T00:46:30;11.10;99.90
16253;DHT22;8234;41.480;2.306;2023-03-15T00:56:35;11.00;99.90
16253;DHT22;8234;41.480;2.306;2023-03-15T01:06:41;11.20;99.90
16253;DHT22;8234;41.480;2.306;2023-03-15T01:16:44;11.00;99.90
16253;DHT22;8234;41.480;2.306;2023-03-15T01:26:49;11.30;99.90
16253;DHT22;8234;41.480;2.306;2023-03-15T01:36:53;11.20;99.90
16253;DHT22;8234;41.480;2.306;2023-03-15T01:46:58;11.20;99.90
16253;DHT22;8234;41.480;2.306;2023-03-15T01:57:06;11.50;99.90
16253;DHT22;8234;41.480;2.306;2023-03-15T02:07:14;11.30;99.90
16253;DHT22;8234;41.480;2.306;2023-03-15T02:17:22;11.60;99.90
16253;DHT22;8234;41.480;2.306;2023-03-15T02:27:30;11.70;99.90
16253;DHT22;8234;41.480;2.306;2023-03-15T02:37:35;12.10;99.90
16253;DHT22;8234;41.480;2.306;2023-03-15T02:47:41;12.40;99.90
16253;DHT22;8234;41.480;2.306;2023-03-15T02:57:46;12.60;99.90
16253;DHT22;8234;41.480;2.306;2023-03-15T03:07:51;12.80;99.90
16253;DHT22;8234;41.480;2.306;2023-03-15T03:17:54;12.90;99.90
16253;DHT22;8234;41.480;2.306;2023-03-15T03:27:59;13.10;99.90
16253;DHT22;8234;41.480;2.306;2023-03-15T03:38:05;13.20;99.90
16253;DHT22;8234;41.480;2.306;2023-03-15T03:48:11;13.20;99.90
16253;DHT22;8234;41.480;2.306;2023-03-15T03:58:14;13.30;99.90
16253;DHT22;8234;41.480;2.306;2023-03-15T04:08:20;13.20;99.90
16253;DHT22;8234;41.480;2.306;2023-03-15T04:18:24;13.00;99.90
16253;DHT22;8234;41.480;2.306;2023-03-15T04:28:29;12.70;99.90
16253;DHT22;8234;41.480;2.306;2023-03-15T04:38:33;12.20;99.90
16253;DHT22;8234;41.480;2.306;2023-03-15T04:48:38;11.90;99.90
16253;DHT22;8234;41.480;2.306;2023-03-15T04:58:42;11.60;99.90
16253;DHT22;8234;41.480;2.306;2023-03-15T05:08:48;11.50;99.90
16253;DHT22;8234;41.480;2.306;2023-03-15T05:18:52;11.80;99.90
16253;DHT22;8234;41.480;2.306;2023-03-15T05:28:59;11.90;99.90
16253;DHT22;8234;41.480;2.306;2023-03-15T05:39:03;12.10;99.90
16253;DHT22;8234;41.480;2.306;2023-03-15T05:49:08;12.10;99.90
16253;DHT22;8234;41.480;2.306;2023-03-15T05:59:12;11.80;99.90
16253;DHT22;8234;41.480;2.306;2023-03-15T06:09:17;11.60;99.90
16253;DHT22;8234;41.480;2.306;2023-03-15T06:19:22;11.70;99.90
16253;DHT22;8234;41.480;2.306;2023-03-15T06:29:27;11.90;99.90
16253;DHT22;8234;41.480;2.306;2023-03-15T06:39:31;12.00;99.90
16253;DHT22;8234;41.480;2.306;2023-03-15T06:49:38;12.00;99.90
16253;DHT22;8234;41.480;2.306;2023-03-15T06:59:42;12.10;99.90
16253;DHT22;8234;41.480;2.306;2023-03-15T07:09:47;12.00;99.90
16253;DHT22;8234;41.480;2.306;2023-03-15T07:19:51;12.00;99.90
16253;DHT22;8234;41.480;2.306;2023-03-15T07:29:59;12.20;99.90
16253;DHT22;8234;41.480;2.306;2023-03-15T07:40:04;12.50;99.90
16253;DHT22;8234;41.480;2.306;2023-03-15T07:50:13;12.90;99.90
16253;DHT22;8234;41.480;2.306;2023-03-15T08:00:20;12.90;99.90
16253;DHT22;8234;41.480;2.306;2023-03-15T08:10:26;13.50;99.90
16253;DHT22;8234;41.480;2.306;2023-03-15T08:20:30;14.20;99.90
16253;DHT22;8234;41.480;2.306;2023-03-15T08:30:37;14.30;99.90
16253;DHT22;8234;41.480;2.306;2023-03-15T08:40:40;14.60;99.90
16253;DHT22;8234;41.480;2.306;2023-03-15T08:50:46;14.90;99.90
16253;DHT22;8234;41.480;2.306;2023-03-15T09:00:50;15.50;99.90
16253;DHT22;8234;41.480;2.306;2023-03-15T09:10:55;15.70;99.90
16253;DHT22;8234;41.480;2.306;2023-03-15T09:20:59;16.40;99.90
16253;DHT22;8234;41.480;2.306;2023-03-15T09:31:05;15.90;99.90
16253;DHT22;8234;41.480;2.306;2023-03-15T09:41:17;15.90;99.90
16253;DHT22;8234;41.480;2.306;2023-03-15T09:51:30;16.10;99.90
16253;DHT22;8234;41.480;2.306;2023-03-15T10:01:38;16.40;99.90
16253;DHT22;8234;41.480;2.306;2023-03-15T10:11:48;16.50;99.90
16253;DHT22;8234;41.480;2.306;2023-03-15T10:22:00;16.80;99.90
16253;DHT22;8234;41.480;2.306;2023-03-15T10:32:14;17.00;99.90
16253;DHT22;8234;41.480;2.306;2023-03-15T10:42:36;16.90;99.90
16253;DHT22;8234;41.480;2.306;2023-03-15T10:52:44;17.20;99.90
16253;DHT22;8234;41.480;2.306;2023-03-15T11:02:51;17.60;99.90
16253;DHT22;8234;41.480;2.306;2023-03-15T11:13:12;17.80;99.90
16253;DHT22;8234;41.480;2.306;2023-03-15T11:23:18;18.40;99.90
16253;DHT22;8234;41.480;2.306;2023-03-15T11:33:34;18.30;99.90
16253;DHT22;8234;41.480;2.306;2023-03-15T11:43:48;19.50;99.90
16253;DHT22;8234;41.480;2.306;2023-03-15T11:54:04;20.00;99.90
16253;DHT22;8234;41.480;2.306;2023-03-15T12:04:42;20.30;99.90
16253;DHT22;8234;41.480;2.306;2023-03-15T12:15:00;20.80;99.90
16253;DHT22;8234;41.480;2.306;2023-03-15T12:25:11;21.20;99.90
16253;DHT22;8234;41.480;2.306;2023-03-15T12:35:19;21.50;99.90
16253;DHT22;8234;41.480;2.306;2023-03-15T12:45:43;21.30;99.90
16253;DHT22;8234;41.480;2.306;2023-03-15T12:55:50;21.60;99.90
16253;DHT22;8234;41.480;2.306;2023-03-15T13:06:12;21.40;99.90
16253;DHT22;8234;41.480;2.306;2023-03-15T13:16:26;22.00;99.90
16253;DHT22;8234;41.480;2.306;2023-03-15T13:26:45;22.90;99.90
16253;DHT22;8234;41.480;2.306;2023-03-15T13:36:55;22.90;99.90
16253;DHT22;8234;41.480;2.306;2023-03-15T13:47:00;23.40;99.90
16253;DHT22;8234;41.480;2.306;2023-03-15T13:57:07;22.80;99.90
16253;DHT22;8234;41.480;2.306;2023-03-15T14:07:24;22.90;99.90
16253;DHT22;8234;41.480;2.306;2023-03-15T14:17:30;22.60;99.90
16253;DHT22;8234;41.480;2.306;2023-03-15T14:27:34;24.20;99.90
16253;DHT22;8234;41.480;2.306;2023-03-15T14:37:41;23.70;99.90
16253;DHT22;8234;41.480;2.306;2023-03-15T14:47:47;24.20;99.90
16253;DHT22;8234;41.480;2.306;2023-03-15T14:58:00;24.10;99.90
16253;DHT22;8234;41.480;2.306;2023-03-15T15:08:08;23.50;99.90
16253;DHT22;8234;41.480;2.306;2023-03-15T15:18:18;23.50;99.90
16253;DHT22;8234;41.480;2.306;2023-03-15T15:28:22;23.20;99.90
16253;DHT22;8234;41.480;2.306;2023-03-15T15:38:38;22.70;99.90
16253;DHT22;8234;41.480;2.306;2023-03-15T15:48:43;22.90;99.90
16253;DHT22;8234;41.480;2.306;2023-03-15T15:58:48;21.90;99.90
16253;DHT22;8234;41.480;2.306;2023-03-15T16:08:53;23.00;99.90
16253;DHT22;8234;41.480;2.306;2023-03-15T16:18:59;21.50;99.90
16253;DHT22;8234;41.480;2.306;2023-03-15T16:29:11;20.10;99.90
16253;DHT22;8234;41.480;2.306;2023-03-15T16:39:17;19.50;99.90
16253;DHT22;8234;41.480;2.306;2023-03-15T16:49:23;18.30;99.90
16253;DHT22;8234;41.480;2.306;2023-03-15T16:59:28;18.30;99.90
16253;DHT22;8234;41.480;2.306;2023-03-15T17:09:33;17.70;99.90
16253;DHT22;8234;41.480;2.306;2023-03-15T17:19:38;17.30;99.90
16253;DHT22;8234;41.480;2.306;2023-03-15T17:29:42;16.90;99.90
16253;DHT22;8234;41.480;2.306;2023-03-15T17:39:48;16.40;99.90
16253;DHT22;8234;41.480;2.306;2023-03-15T17:49:52;16.20;99.90
16253;DHT22;8234;41.480;2.306;2023-03-15T17:59:57;16.00;99.90
16253;DHT22;8234;41.480;2.306;2023-03-15T18:10:01;15.80;99.90
16253;DHT22;8234;41.480;2.306;2023-03-15T18:20:08;15.60;99.90
16253;DHT22;8234;41.480;2.306;2023-03-15T18:40:26;15.40;99.90
16253;DHT22;8234;41.480;2.306;2023-03-15T18:50:30;15.10;99.90
16253;DHT22;8234;41.480;2.306;2023-03-15T19:00:36;15.00;99.90
16253;DHT22;8234;41.480;2.306;2023-03-15T19:10:40;14.90;99.90
